Lamar, Missouri
Current Conditions -  °F | °C
As of 7:15 AM on Friday 28 Nov 2014 (Local Time) from KPTS Reporting Station
Clear Clear  
Wind Chill: 31°   Ceiling: Unl
Heat Index: 39°   Visibility: 10mi
Dew Point: 29°   Wind: 12mph
Humidity: 69%   Direction: 200°SSW
Pressure: 30.08"   Gusts: 17mph
Location:  37.5°N, 94.28°W
Report Text: KPTS 281315Z AUTO 20010G15KT 10SM CLR 04/M02 A3008 RMK AO2 T00371016
Loading
Personal Weather Stations






























Interactive Weather Map New forecast layout! Learn more

10-Day Weather Forecast

Advertisements
Track Severe Weather on mobile